sensor_id;sensor_type;location;lat;lon;timestamp;P1;durP1;ratioP1;P2;durP2;ratioP2
12972;SDS011;6551;51.056;9.466;2023-03-23T00:01:11;1.60;;;0.80;;
12972;SDS011;6551;51.056;9.466;2023-03-23T00:03:39;1.70;;;0.70;;
12972;SDS011;6551;51.056;9.466;2023-03-23T00:06:06;1.03;;;0.70;;
12972;SDS011;6551;51.056;9.466;2023-03-23T00:08:34;9.37;;;1.53;;
12972;SDS011;6551;51.056;9.466;2023-03-23T00:11:05;1.77;;;0.90;;
12972;SDS011;6551;51.056;9.466;2023-03-23T00:13:32;2.30;;;0.43;;
12972;SDS011;6551;51.056;9.466;2023-03-23T00:16:00;1.87;;;0.83;;
12972;SDS011;6551;51.056;9.466;2023-03-23T00:18:25;2.83;;;0.77;;
12972;SDS011;6551;51.056;9.466;2023-03-23T00:20:55;2.17;;;0.90;;
12972;SDS011;6551;51.056;9.466;2023-03-23T00:23:22;3.40;;;1.50;;
12972;SDS011;6551;51.056;9.466;2023-03-23T00:25:51;3.27;;;1.17;;
12972;SDS011;6551;51.056;9.466;2023-03-23T00:43:05;1.83;;;0.60;;
12972;SDS011;6551;51.056;9.466;2023-03-23T00:45:31;2.07;;;0.90;;
12972;SDS011;6551;51.056;9.466;2023-03-23T00:48:01;2.70;;;0.97;;
12972;SDS011;6551;51.056;9.466;2023-03-23T00:50:30;3.23;;;0.60;;
12972;SDS011;6551;51.056;9.466;2023-03-23T00:52:56;5.30;;;1.13;;
12972;SDS011;6551;51.056;9.466;2023-03-23T00:55:25;3.13;;;1.13;;
12972;SDS011;6551;51.056;9.466;2023-03-23T00:57:52;3.63;;;0.90;;
12972;SDS011;6551;51.056;9.466;2023-03-23T01:00:19;3.10;;;0.70;;
12972;SDS011;6551;51.056;9.466;2023-03-23T01:02:45;1.10;;;0.80;;
12972;SDS011;6551;51.056;9.466;2023-03-23T01:05:13;1.43;;;0.70;;
12972;SDS011;6551;51.056;9.466;2023-03-23T01:07:40;1.43;;;0.77;;
12972;SDS011;6551;51.056;9.466;2023-03-23T01:10:10;1.57;;;0.70;;
12972;SDS011;6551;51.056;9.466;2023-03-23T01:12:40;1.70;;;0.70;;
12972;SDS011;6551;51.056;9.466;2023-03-23T01:15:08;1.63;;;0.83;;
12972;SDS011;6551;51.056;9.466;2023-03-23T01:17:42;1.63;;;0.70;;
12972;SDS011;6551;51.056;9.466;2023-03-23T01:20:11;1.77;;;0.83;;
12972;SDS011;6551;51.056;9.466;2023-03-23T01:22:41;2.87;;;1.00;;
12972;SDS011;6551;51.056;9.466;2023-03-23T01:25:08;3.73;;;1.10;;
12972;SDS011;6551;51.056;9.466;2023-03-23T01:27:38;5.37;;;0.90;;
12972;SDS011;6551;51.056;9.466;2023-03-23T01:30:05;1.53;;;0.80;;
12972;SDS011;6551;51.056;9.466;2023-03-23T01:32:36;2.43;;;0.80;;
12972;SDS011;6551;51.056;9.466;2023-03-23T01:35:02;1.70;;;0.90;;
12972;SDS011;6551;51.056;9.466;2023-03-23T01:37:29;3.03;;;0.90;;
12972;SDS011;6551;51.056;9.466;2023-03-23T01:39:56;1.77;;;1.40;;
12972;SDS011;6551;51.056;9.466;2023-03-23T01:42:26;4.57;;;1.10;;
12972;SDS011;6551;51.056;9.466;2023-03-23T01:50:59;3.20;;;1.20;;
12972;SDS011;6551;51.056;9.466;2023-03-23T01:53:54;2.73;;;1.10;;
12972;SDS011;6551;51.056;9.466;2023-03-23T01:56:26;1.47;;;0.87;;
12972;SDS011;6551;51.056;9.466;2023-03-23T01:58:58;3.80;;;1.10;;
12972;SDS011;6551;51.056;9.466;2023-03-23T02:01:24;1.67;;;1.00;;
12972;SDS011;6551;51.056;9.466;2023-03-23T02:03:52;2.03;;;0.90;;
12972;SDS011;6551;51.056;9.466;2023-03-23T02:06:24;2.73;;;1.07;;
12972;SDS011;6551;51.056;9.466;2023-03-23T02:08:49;2.80;;;1.13;;
12972;SDS011;6551;51.056;9.466;2023-03-23T02:11:20;2.27;;;1.20;;
12972;SDS011;6551;51.056;9.466;2023-03-23T02:13:48;1.57;;;1.27;;
12972;SDS011;6551;51.056;9.466;2023-03-23T02:22:00;2.80;;;1.40;;
12972;SDS011;6551;51.056;9.466;2023-03-23T02:27:51;4.03;;;1.23;;
12972;SDS011;6551;51.056;9.466;2023-03-23T02:42:11;2.80;;;1.03;;
12972;SDS011;6551;51.056;9.466;2023-03-23T02:44:44;2.33;;;1.10;;
12972;SDS011;6551;51.056;9.466;2023-03-23T02:47:19;3.37;;;1.17;;
12972;SDS011;6551;51.056;9.466;2023-03-23T02:49:50;3.33;;;1.50;;
12972;SDS011;6551;51.056;9.466;2023-03-23T02:52:23;2.73;;;0.93;;
12972;SDS011;6551;51.056;9.466;2023-03-23T02:54:54;1.20;;;0.93;;
12972;SDS011;6551;51.056;9.466;2023-03-23T02:57:23;4.10;;;1.60;;
12972;SDS011;6551;51.056;9.466;2023-03-23T02:59:51;1.87;;;1.00;;
12972;SDS011;6551;51.056;9.466;2023-03-23T03:02:26;1.60;;;1.23;;
12972;SDS011;6551;51.056;9.466;2023-03-23T03:11:24;2.00;;;1.10;;
12972;SDS011;6551;51.056;9.466;2023-03-23T03:14:37;1.87;;;1.17;;
12972;SDS011;6551;51.056;9.466;2023-03-23T03:16:56;2.53;;;0.97;;
12972;SDS011;6551;51.056;9.466;2023-03-23T03:19:45;2.13;;;1.30;;
12972;SDS011;6551;51.056;9.466;2023-03-23T03:22:16;2.20;;;1.20;;
12972;SDS011;6551;51.056;9.466;2023-03-23T03:24:45;2.80;;;1.13;;
12972;SDS011;6551;51.056;9.466;2023-03-23T03:27:14;2.63;;;1.20;;
12972;SDS011;6551;51.056;9.466;2023-03-23T03:29:45;2.50;;;1.40;;
12972;SDS011;6551;51.056;9.466;2023-03-23T03:32:17;2.47;;;1.10;;
12972;SDS011;6551;51.056;9.466;2023-03-23T03:34:49;2.57;;;1.23;;
12972;SDS011;6551;51.056;9.466;2023-03-23T03:37:15;2.33;;;1.50;;
12972;SDS011;6551;51.056;9.466;2023-03-23T03:39:43;2.90;;;1.30;;
12972;SDS011;6551;51.056;9.466;2023-03-23T03:42:09;2.17;;;1.37;;
12972;SDS011;6551;51.056;9.466;2023-03-23T03:44:37;2.53;;;1.53;;
12972;SDS011;6551;51.056;9.466;2023-03-23T03:47:03;2.27;;;1.50;;
12972;SDS011;6551;51.056;9.466;2023-03-23T03:49:30;1.90;;;1.33;;
12972;SDS011;6551;51.056;9.466;2023-03-23T03:51:56;2.27;;;1.60;;
12972;SDS011;6551;51.056;9.466;2023-03-23T03:54:21;2.27;;;1.47;;
12972;SDS011;6551;51.056;9.466;2023-03-23T03:56:47;2.70;;;1.67;;
12972;SDS011;6551;51.056;9.466;2023-03-23T03:59:12;4.60;;;1.47;;
12972;SDS011;6551;51.056;9.466;2023-03-23T04:01:38;3.80;;;1.47;;
12972;SDS011;6551;51.056;9.466;2023-03-23T04:04:06;5.87;;;1.50;;
12972;SDS011;6551;51.056;9.466;2023-03-23T04:06:33;2.00;;;1.40;;
12972;SDS011;6551;51.056;9.466;2023-03-23T04:09:01;3.20;;;1.73;;
12972;SDS011;6551;51.056;9.466;2023-03-23T04:11:31;2.73;;;1.47;;
12972;SDS011;6551;51.056;9.466;2023-03-23T04:13:59;2.27;;;1.50;;
12972;SDS011;6551;51.056;9.466;2023-03-23T04:16:24;3.27;;;1.43;;
12972;SDS011;6551;51.056;9.466;2023-03-23T04:18:51;1.87;;;1.57;;
12972;SDS011;6551;51.056;9.466;2023-03-23T04:21:17;3.77;;;1.67;;
12972;SDS011;6551;51.056;9.466;2023-03-23T04:23:42;3.90;;;1.80;;
12972;SDS011;6551;51.056;9.466;2023-03-23T04:26:08;2.30;;;1.53;;
12972;SDS011;6551;51.056;9.466;2023-03-23T04:28:39;6.60;;;1.80;;
12972;SDS011;6551;51.056;9.466;2023-03-23T04:31:06;2.33;;;1.23;;
12972;SDS011;6551;51.056;9.466;2023-03-23T04:33:35;4.73;;;1.50;;
12972;SDS011;6551;51.056;9.466;2023-03-23T04:36:07;1.90;;;1.60;;
12972;SDS011;6551;51.056;9.466;2023-03-23T04:38:32;2.43;;;1.40;;
12972;SDS011;6551;51.056;9.466;2023-03-23T04:40:59;2.00;;;1.20;;
12972;SDS011;6551;51.056;9.466;2023-03-23T04:43:27;5.20;;;1.30;;
12972;SDS011;6551;51.056;9.466;2023-03-23T04:45:55;3.53;;;1.30;;
12972;SDS011;6551;51.056;9.466;2023-03-23T04:48:25;4.33;;;1.13;;
12972;SDS011;6551;51.056;9.466;2023-03-23T04:50:56;1.30;;;1.13;;
12972;SDS011;6551;51.056;9.466;2023-03-23T04:53:24;2.23;;;1.20;;
12972;SDS011;6551;51.056;9.466;2023-03-23T04:55:50;5.63;;;1.33;;
12972;SDS011;6551;51.056;9.466;2023-03-23T04:58:16;3.10;;;1.10;;
12972;SDS011;6551;51.056;9.466;2023-03-23T05:00:42;2.13;;;1.13;;
12972;SDS011;6551;51.056;9.466;2023-03-23T05:03:14;1.50;;;1.30;;
12972;SDS011;6551;51.056;9.466;2023-03-23T05:05:42;3.43;;;1.30;;
12972;SDS011;6551;51.056;9.466;2023-03-23T05:08:11;3.30;;;1.70;;
12972;SDS011;6551;51.056;9.466;2023-03-23T05:10:41;2.17;;;1.67;;
12972;SDS011;6551;51.056;9.466;2023-03-23T05:13:07;2.93;;;1.27;;
12972;SDS011;6551;51.056;9.466;2023-03-23T05:15:32;4.20;;;1.20;;
12972;SDS011;6551;51.056;9.466;2023-03-23T05:17:59;2.83;;;1.40;;
12972;SDS011;6551;51.056;9.466;2023-03-23T05:20:25;3.30;;;1.37;;
12972;SDS011;6551;51.056;9.466;2023-03-23T05:22:52;2.90;;;1.50;;
12972;SDS011;6551;51.056;9.466;2023-03-23T05:25:19;1.63;;;1.30;;
12972;SDS011;6551;51.056;9.466;2023-03-23T05:27:45;2.70;;;1.20;;
12972;SDS011;6551;51.056;9.466;2023-03-23T05:30:17;3.83;;;1.53;;
12972;SDS011;6551;51.056;9.466;2023-03-23T05:32:44;2.53;;;1.37;;
12972;SDS011;6551;51.056;9.466;2023-03-23T05:35:10;2.33;;;1.60;;
12972;SDS011;6551;51.056;9.466;2023-03-23T05:37:38;2.10;;;1.40;;
12972;SDS011;6551;51.056;9.466;2023-03-23T05:40:05;1.47;;;1.23;;
12972;SDS011;6551;51.056;9.466;2023-03-23T05:42:35;3.10;;;1.60;;
12972;SDS011;6551;51.056;9.466;2023-03-23T05:45:03;2.47;;;1.20;;
12972;SDS011;6551;51.056;9.466;2023-03-23T05:47:31;1.93;;;1.53;;
12972;SDS011;6551;51.056;9.466;2023-03-23T05:49:57;3.47;;;1.30;;
12972;SDS011;6551;51.056;9.466;2023-03-23T05:52:23;3.03;;;1.30;;
12972;SDS011;6551;51.056;9.466;2023-03-23T05:54:50;3.40;;;1.40;;
12972;SDS011;6551;51.056;9.466;2023-03-23T05:57:16;2.03;;;1.30;;
12972;SDS011;6551;51.056;9.466;2023-03-23T05:59:43;2.10;;;1.53;;
12972;SDS011;6551;51.056;9.466;2023-03-23T06:02:09;2.90;;;1.50;;
12972;SDS011;6551;51.056;9.466;2023-03-23T06:04:40;1.93;;;1.33;;
12972;SDS011;6551;51.056;9.466;2023-03-23T06:07:06;2.67;;;1.67;;
12972;SDS011;6551;51.056;9.466;2023-03-23T06:09:39;3.90;;;1.77;;
12972;SDS011;6551;51.056;9.466;2023-03-23T06:12:08;1.53;;;1.20;;
12972;SDS011;6551;51.056;9.466;2023-03-23T06:14:35;5.40;;;1.47;;
12972;SDS011;6551;51.056;9.466;2023-03-23T06:17:01;4.00;;;1.70;;
12972;SDS011;6551;51.056;9.466;2023-03-23T06:19:29;2.70;;;1.37;;
12972;SDS011;6551;51.056;9.466;2023-03-23T06:21:56;2.20;;;1.37;;
12972;SDS011;6551;51.056;9.466;2023-03-23T06:24:22;2.43;;;1.80;;
12972;SDS011;6551;51.056;9.466;2023-03-23T06:26:49;2.37;;;1.40;;
12972;SDS011;6551;51.056;9.466;2023-03-23T06:29:15;6.17;;;3.30;;
12972;SDS011;6551;51.056;9.466;2023-03-23T06:31:52;2.47;;;1.90;;
12972;SDS011;6551;51.056;9.466;2023-03-23T06:34:22;2.77;;;1.50;;
12972;SDS011;6551;51.056;9.466;2023-03-23T06:36:48;2.10;;;1.50;;
12972;SDS011;6551;51.056;9.466;2023-03-23T06:39:14;3.40;;;1.90;;
12972;SDS011;6551;51.056;9.466;2023-03-23T06:41:40;2.37;;;1.93;;
12972;SDS011;6551;51.056;9.466;2023-03-23T06:44:06;4.33;;;1.87;;
12972;SDS011;6551;51.056;9.466;2023-03-23T06:46:33;3.20;;;1.70;;
12972;SDS011;6551;51.056;9.466;2023-03-23T06:48:59;2.07;;;1.70;;
12972;SDS011;6551;51.056;9.466;2023-03-23T06:51:25;3.03;;;1.30;;
12972;SDS011;6551;51.056;9.466;2023-03-23T06:53:52;2.03;;;1.43;;
12972;SDS011;6551;51.056;9.466;2023-03-23T06:56:20;2.20;;;1.93;;
12972;SDS011;6551;51.056;9.466;2023-03-23T06:58:46;3.47;;;1.97;;
12972;SDS011;6551;51.056;9.466;2023-03-23T07:01:13;3.40;;;1.87;;
12972;SDS011;6551;51.056;9.466;2023-03-23T07:03:40;2.00;;;1.37;;
12972;SDS011;6551;51.056;9.466;2023-03-23T07:06:07;4.23;;;1.43;;
12972;SDS011;6551;51.056;9.466;2023-03-23T07:08:34;2.23;;;1.70;;
12972;SDS011;6551;51.056;9.466;2023-03-23T07:11:02;2.27;;;1.63;;
12972;SDS011;6551;51.056;9.466;2023-03-23T07:13:32;3.07;;;1.80;;
12972;SDS011;6551;51.056;9.466;2023-03-23T07:15:58;3.53;;;1.70;;
12972;SDS011;6551;51.056;9.466;2023-03-23T07:18:25;4.00;;;1.90;;
12972;SDS011;6551;51.056;9.466;2023-03-23T07:20:52;5.97;;;3.50;;
12972;SDS011;6551;51.056;9.466;2023-03-23T07:23:19;2.77;;;2.07;;
12972;SDS011;6551;51.056;9.466;2023-03-23T07:25:45;2.90;;;2.40;;
12972;SDS011;6551;51.056;9.466;2023-03-23T07:28:13;3.27;;;1.87;;
12972;SDS011;6551;51.056;9.466;2023-03-23T07:30:40;3.90;;;2.50;;
12972;SDS011;6551;51.056;9.466;2023-03-23T07:33:07;2.50;;;1.80;;
12972;SDS011;6551;51.056;9.466;2023-03-23T07:35:34;3.07;;;1.80;;
12972;SDS011;6551;51.056;9.466;2023-03-23T07:38:01;2.83;;;1.60;;
12972;SDS011;6551;51.056;9.466;2023-03-23T07:40:30;2.40;;;1.90;;
12972;SDS011;6551;51.056;9.466;2023-03-23T07:43:00;4.63;;;1.90;;
12972;SDS011;6551;51.056;9.466;2023-03-23T07:45:28;2.57;;;1.50;;
12972;SDS011;6551;51.056;9.466;2023-03-23T07:47:54;2.77;;;1.70;;
12972;SDS011;6551;51.056;9.466;2023-03-23T07:50:21;2.83;;;1.63;;
12972;SDS011;6551;51.056;9.466;2023-03-23T07:52:49;3.67;;;1.70;;
12972;SDS011;6551;51.056;9.466;2023-03-23T07:55:16;3.73;;;1.70;;
12972;SDS011;6551;51.056;9.466;2023-03-23T07:57:45;4.33;;;1.93;;
12972;SDS011;6551;51.056;9.466;2023-03-23T08:00:17;3.13;;;1.50;;
12972;SDS011;6551;51.056;9.466;2023-03-23T08:02:59;3.60;;;1.50;;
12972;SDS011;6551;51.056;9.466;2023-03-23T08:05:28;2.30;;;1.50;;
12972;SDS011;6551;51.056;9.466;2023-03-23T08:07:54;2.77;;;1.60;;
12972;SDS011;6551;51.056;9.466;2023-03-23T08:10:21;3.23;;;1.80;;
12972;SDS011;6551;51.056;9.466;2023-03-23T08:12:50;3.03;;;1.50;;
12972;SDS011;6551;51.056;9.466;2023-03-23T08:15:21;2.67;;;1.60;;
12972;SDS011;6551;51.056;9.466;2023-03-23T08:17:49;3.30;;;1.50;;
12972;SDS011;6551;51.056;9.466;2023-03-23T08:20:17;2.77;;;1.70;;
12972;SDS011;6551;51.056;9.466;2023-03-23T08:22:45;2.83;;;1.60;;
12972;SDS011;6551;51.056;9.466;2023-03-23T08:25:19;2.37;;;1.30;;
12972;SDS011;6551;51.056;9.466;2023-03-23T08:27:44;4.07;;;1.73;;
12972;SDS011;6551;51.056;9.466;2023-03-23T08:30:12;3.27;;;1.57;;
12972;SDS011;6551;51.056;9.466;2023-03-23T08:32:42;5.63;;;3.20;;
12972;SDS011;6551;51.056;9.466;2023-03-23T08:35:09;4.17;;;1.90;;
12972;SDS011;6551;51.056;9.466;2023-03-23T08:37:38;1.77;;;1.53;;
12972;SDS011;6551;51.056;9.466;2023-03-23T08:40:09;4.43;;;1.60;;
12972;SDS011;6551;51.056;9.466;2023-03-23T08:42:39;2.73;;;1.30;;
12972;SDS011;6551;51.056;9.466;2023-03-23T08:45:09;4.07;;;1.70;;
12972;SDS011;6551;51.056;9.466;2023-03-23T08:47:40;2.53;;;1.60;;
12972;SDS011;6551;51.056;9.466;2023-03-23T08:50:10;2.47;;;1.40;;
12972;SDS011;6551;51.056;9.466;2023-03-23T08:52:40;2.17;;;1.40;;
12972;SDS011;6551;51.056;9.466;2023-03-23T08:55:08;4.23;;;1.50;;
12972;SDS011;6551;51.056;9.466;2023-03-23T08:57:36;2.50;;;1.50;;
12972;SDS011;6551;51.056;9.466;2023-03-23T09:00:04;2.27;;;1.50;;
12972;SDS011;6551;51.056;9.466;2023-03-23T09:02:40;3.07;;;1.83;;
12972;SDS011;6551;51.056;9.466;2023-03-23T09:05:08;5.10;;;3.77;;
12972;SDS011;6551;51.056;9.466;2023-03-23T09:07:38;4.70;;;1.70;;
12972;SDS011;6551;51.056;9.466;2023-03-23T09:10:07;6.80;;;2.00;;
12972;SDS011;6551;51.056;9.466;2023-03-23T09:12:34;1.97;;;1.50;;
12972;SDS011;6551;51.056;9.466;2023-03-23T09:15:01;3.20;;;1.37;;
12972;SDS011;6551;51.056;9.466;2023-03-23T09:17:44;2.77;;;1.27;;
12972;SDS011;6551;51.056;9.466;2023-03-23T09:20:14;2.83;;;1.20;;
12972;SDS011;6551;51.056;9.466;2023-03-23T09:22:46;3.73;;;1.40;;
12972;SDS011;6551;51.056;9.466;2023-03-23T09:25:15;1.63;;;1.23;;
12972;SDS011;6551;51.056;9.466;2023-03-23T09:27:45;2.23;;;1.33;;
12972;SDS011;6551;51.056;9.466;2023-03-23T09:30:17;1.97;;;1.40;;
12972;SDS011;6551;51.056;9.466;2023-03-23T09:32:44;2.40;;;1.10;;
12972;SDS011;6551;51.056;9.466;2023-03-23T09:35:10;3.17;;;1.00;;
12972;SDS011;6551;51.056;9.466;2023-03-23T09:37:39;2.30;;;1.20;;
12972;SDS011;6551;51.056;9.466;2023-03-23T09:40:09;1.70;;;1.20;;
12972;SDS011;6551;51.056;9.466;2023-03-23T09:48:46;1.87;;;1.40;;
12972;SDS011;6551;51.056;9.466;2023-03-23T09:51:29;2.50;;;1.33;;
12972;SDS011;6551;51.056;9.466;2023-03-23T09:54:31;2.70;;;1.23;;
12972;SDS011;6551;51.056;9.466;2023-03-23T09:57:15;1.23;;;1.10;;
12972;SDS011;6551;51.056;9.466;2023-03-23T10:03:06;3.60;;;1.37;;
12972;SDS011;6551;51.056;9.466;2023-03-23T10:05:46;2.67;;;1.33;;
12972;SDS011;6551;51.056;9.466;2023-03-23T10:16:27;3.43;;;1.43;;
12972;SDS011;6551;51.056;9.466;2023-03-23T10:21:52;1.83;;;1.23;;
12972;SDS011;6551;51.056;9.466;2023-03-23T10:24:26;1.73;;;1.33;;
12972;SDS011;6551;51.056;9.466;2023-03-23T10:30:34;1.83;;;1.30;;
12972;SDS011;6551;51.056;9.466;2023-03-23T10:36:18;2.73;;;1.30;;
12972;SDS011;6551;51.056;9.466;2023-03-23T10:41:47;2.37;;;1.30;;
12972;SDS011;6551;51.056;9.466;2023-03-23T10:44:20;2.03;;;1.17;;
12972;SDS011;6551;51.056;9.466;2023-03-23T10:46:53;4.13;;;1.10;;
12972;SDS011;6551;51.056;9.466;2023-03-23T10:49:45;1.30;;;1.00;;
12972;SDS011;6551;51.056;9.466;2023-03-23T10:52:28;2.10;;;1.30;;
12972;SDS011;6551;51.056;9.466;2023-03-23T10:54:55;2.03;;;1.03;;
12972;SDS011;6551;51.056;9.466;2023-03-23T10:57:29;2.80;;;1.40;;
12972;SDS011;6551;51.056;9.466;2023-03-23T11:00:20;3.20;;;1.63;;
12972;SDS011;6551;51.056;9.466;2023-03-23T11:02:58;2.93;;;1.50;;
12972;SDS011;6551;51.056;9.466;2023-03-23T11:05:40;1.80;;;1.40;;
12972;SDS011;6551;51.056;9.466;2023-03-23T11:08:16;2.53;;;1.23;;
12972;SDS011;6551;51.056;9.466;2023-03-23T11:10:50;2.50;;;1.37;;
12972;SDS011;6551;51.056;9.466;2023-03-23T11:13:45;2.23;;;1.40;;
12972;SDS011;6551;51.056;9.466;2023-03-23T11:16:26;3.43;;;1.50;;
12972;SDS011;6551;51.056;9.466;2023-03-23T11:19:12;1.50;;;1.37;;
12972;SDS011;6551;51.056;9.466;2023-03-23T11:21:40;1.70;;;1.37;;
12972;SDS011;6551;51.056;9.466;2023-03-23T11:24:17;2.20;;;1.10;;
12972;SDS011;6551;51.056;9.466;2023-03-23T11:26:46;3.17;;;1.20;;
12972;SDS011;6551;51.056;9.466;2023-03-23T11:29:14;3.90;;;1.73;;
12972;SDS011;6551;51.056;9.466;2023-03-23T11:31:45;2.37;;;1.60;;
12972;SDS011;6551;51.056;9.466;2023-03-23T11:37:28;2.77;;;1.60;;
12972;SDS011;6551;51.056;9.466;2023-03-23T11:40:14;2.10;;;1.57;;
12972;SDS011;6551;51.056;9.466;2023-03-23T11:43:00;2.90;;;1.57;;
12972;SDS011;6551;51.056;9.466;2023-03-23T11:45:56;2.00;;;1.40;;
12972;SDS011;6551;51.056;9.466;2023-03-23T11:48:45;2.77;;;1.60;;
12972;SDS011;6551;51.056;9.466;2023-03-23T11:54:13;1.97;;;1.40;;
12972;SDS011;6551;51.056;9.466;2023-03-23T11:57:11;2.53;;;1.40;;
12972;SDS011;6551;51.056;9.466;2023-03-23T11:59:39;2.30;;;1.40;;
12972;SDS011;6551;51.056;9.466;2023-03-23T12:11:01;2.80;;;1.37;;
12972;SDS011;6551;51.056;9.466;2023-03-23T12:48:31;1.20;;;1.10;;
12972;SDS011;6551;51.056;9.466;2023-03-23T12:53:56;5.27;;;1.37;;
12972;SDS011;6551;51.056;9.466;2023-03-23T12:56:58;1.40;;;1.00;;
12972;SDS011;6551;51.056;9.466;2023-03-23T12:59:54;1.83;;;0.90;;
12972;SDS011;6551;51.056;9.466;2023-03-23T13:02:44;1.43;;;0.83;;
12972;SDS011;6551;51.056;9.466;2023-03-23T13:05:29;2.17;;;1.10;;
12972;SDS011;6551;51.056;9.466;2023-03-23T13:08:26;1.90;;;0.80;;
12972;SDS011;6551;51.056;9.466;2023-03-23T13:11:13;1.00;;;0.90;;
12972;SDS011;6551;51.056;9.466;2023-03-23T13:13:50;1.90;;;1.13;;
12972;SDS011;6551;51.056;9.466;2023-03-23T13:24:36;1.80;;;1.20;;
12972;SDS011;6551;51.056;9.466;2023-03-23T13:27:22;1.37;;;0.97;;
12972;SDS011;6551;51.056;9.466;2023-03-23T13:29:54;1.17;;;0.70;;
12972;SDS011;6551;51.056;9.466;2023-03-23T13:32:32;2.17;;;0.90;;
12972;SDS011;6551;51.056;9.466;2023-03-23T13:35:05;2.63;;;0.97;;
12972;SDS011;6551;51.056;9.466;2023-03-23T13:37:41;1.27;;;0.63;;
12972;SDS011;6551;51.056;9.466;2023-03-23T13:42:54;0.90;;;0.60;;
12972;SDS011;6551;51.056;9.466;2023-03-23T13:48:05;0.90;;;0.70;;
12972;SDS011;6551;51.056;9.466;2023-03-23T13:50:53;0.90;;;0.70;;
12972;SDS011;6551;51.056;9.466;2023-03-23T13:53:29;1.47;;;0.80;;
12972;SDS011;6551;51.056;9.466;2023-03-23T13:59:15;1.60;;;0.90;;
12972;SDS011;6551;51.056;9.466;2023-03-23T14:01:54;1.37;;;0.67;;
12972;SDS011;6551;51.056;9.466;2023-03-23T14:04:23;1.50;;;0.97;;
12972;SDS011;6551;51.056;9.466;2023-03-23T14:07:08;1.20;;;0.63;;
12972;SDS011;6551;51.056;9.466;2023-03-23T14:09:42;1.90;;;0.57;;
12972;SDS011;6551;51.056;9.466;2023-03-23T14:12:19;2.03;;;0.80;;
12972;SDS011;6551;51.056;9.466;2023-03-23T14:14:56;1.90;;;0.80;;
12972;SDS011;6551;51.056;9.466;2023-03-23T14:17:30;1.27;;;0.60;;
12972;SDS011;6551;51.056;9.466;2023-03-23T14:20:05;3.10;;;0.70;;
12972;SDS011;6551;51.056;9.466;2023-03-23T14:22:35;2.03;;;0.70;;
12972;SDS011;6551;51.056;9.466;2023-03-23T14:25:14;1.37;;;0.70;;
12972;SDS011;6551;51.056;9.466;2023-03-23T14:27:43;2.40;;;0.87;;
12972;SDS011;6551;51.056;9.466;2023-03-23T14:30:14;1.80;;;0.70;;
12972;SDS011;6551;51.056;9.466;2023-03-23T14:32:43;1.00;;;0.70;;
12972;SDS011;6551;51.056;9.466;2023-03-23T14:35:23;2.57;;;0.50;;
12972;SDS011;6551;51.056;9.466;2023-03-23T14:37:59;1.50;;;0.80;;
12972;SDS011;6551;51.056;9.466;2023-03-23T14:40:28;1.47;;;0.97;;
12972;SDS011;6551;51.056;9.466;2023-03-23T14:42:56;2.00;;;0.90;;
12972;SDS011;6551;51.056;9.466;2023-03-23T14:45:24;3.10;;;0.80;;
12972;SDS011;6551;51.056;9.466;2023-03-23T14:47:52;1.33;;;0.90;;
12972;SDS011;6551;51.056;9.466;2023-03-23T14:50:31;2.10;;;0.80;;
12972;SDS011;6551;51.056;9.466;2023-03-23T14:55:49;1.13;;;0.80;;
12972;SDS011;6551;51.056;9.466;2023-03-23T14:58:21;1.40;;;0.90;;
12972;SDS011;6551;51.056;9.466;2023-03-23T15:00:53;2.13;;;1.20;;
12972;SDS011;6551;51.056;9.466;2023-03-23T15:03:34;1.37;;;1.17;;
12972;SDS011;6551;51.056;9.466;2023-03-23T15:06:07;2.13;;;1.07;;
12972;SDS011;6551;51.056;9.466;2023-03-23T15:08:41;2.03;;;1.03;;
12972;SDS011;6551;51.056;9.466;2023-03-23T15:13:44;1.67;;;1.13;;
12972;SDS011;6551;51.056;9.466;2023-03-23T15:16:18;1.40;;;0.73;;
12972;SDS011;6551;51.056;9.466;2023-03-23T15:19:33;3.93;;;1.07;;
12972;SDS011;6551;51.056;9.466;2023-03-23T15:21:53;2.27;;;0.80;;
12972;SDS011;6551;51.056;9.466;2023-03-23T15:24:34;0.83;;;0.63;;
12972;SDS011;6551;51.056;9.466;2023-03-23T15:27:15;3.47;;;0.70;;
12972;SDS011;6551;51.056;9.466;2023-03-23T15:32:30;2.80;;;0.90;;
12972;SDS011;6551;51.056;9.466;2023-03-23T15:35:10;1.57;;;0.73;;
12972;SDS011;6551;51.056;9.466;2023-03-23T15:40:25;1.50;;;0.80;;
12972;SDS011;6551;51.056;9.466;2023-03-23T15:43:14;1.20;;;0.80;;
12972;SDS011;6551;51.056;9.466;2023-03-23T15:45:52;1.20;;;0.80;;
12972;SDS011;6551;51.056;9.466;2023-03-23T15:48:22;1.17;;;0.90;;
12972;SDS011;6551;51.056;9.466;2023-03-23T15:50:48;1.00;;;0.90;;
12972;SDS011;6551;51.056;9.466;2023-03-23T15:53:21;2.30;;;0.90;;
12972;SDS011;6551;51.056;9.466;2023-03-23T15:56:23;1.23;;;1.00;;
12972;SDS011;6551;51.056;9.466;2023-03-23T15:58:50;1.93;;;0.97;;
12972;SDS011;6551;51.056;9.466;2023-03-23T16:01:17;4.10;;;1.37;;
12972;SDS011;6551;51.056;9.466;2023-03-23T16:06:40;1.60;;;1.00;;
12972;SDS011;6551;51.056;9.466;2023-03-23T16:09:07;3.30;;;1.70;;
12972;SDS011;6551;51.056;9.466;2023-03-23T16:11:41;1.80;;;0.97;;
12972;SDS011;6551;51.056;9.466;2023-03-23T16:14:09;0.80;;;0.60;;
12972;SDS011;6551;51.056;9.466;2023-03-23T16:16:42;0.97;;;0.60;;
12972;SDS011;6551;51.056;9.466;2023-03-23T16:19:12;1.20;;;0.70;;
12972;SDS011;6551;51.056;9.466;2023-03-23T16:21:40;1.27;;;0.97;;
12972;SDS011;6551;51.056;9.466;2023-03-23T16:24:07;1.73;;;0.80;;
12972;SDS011;6551;51.056;9.466;2023-03-23T16:26:34;1.07;;;0.87;;
12972;SDS011;6551;51.056;9.466;2023-03-23T16:29:00;1.43;;;0.93;;
12972;SDS011;6551;51.056;9.466;2023-03-23T16:31:27;1.27;;;0.77;;
12972;SDS011;6551;51.056;9.466;2023-03-23T16:33:53;1.47;;;1.03;;
12972;SDS011;6551;51.056;9.466;2023-03-23T16:36:19;2.63;;;0.50;;
12972;SDS011;6551;51.056;9.466;2023-03-23T16:38:45;3.53;;;0.77;;
12972;SDS011;6551;51.056;9.466;2023-03-23T16:41:11;1.80;;;0.70;;
12972;SDS011;6551;51.056;9.466;2023-03-23T16:43:36;1.67;;;0.60;;
12972;SDS011;6551;51.056;9.466;2023-03-23T16:46:04;1.93;;;1.00;;
12972;SDS011;6551;51.056;9.466;2023-03-23T16:48:30;1.53;;;1.00;;
12972;SDS011;6551;51.056;9.466;2023-03-23T16:50:55;6.53;;;3.70;;
12972;SDS011;6551;51.056;9.466;2023-03-23T16:53:22;1.10;;;0.70;;
12972;SDS011;6551;51.056;9.466;2023-03-23T16:55:50;3.27;;;1.07;;
12972;SDS011;6551;51.056;9.466;2023-03-23T16:58:16;1.50;;;0.57;;
12972;SDS011;6551;51.056;9.466;2023-03-23T17:00:47;2.03;;;1.00;;
12972;SDS011;6551;51.056;9.466;2023-03-23T17:03:16;1.43;;;0.80;;
12972;SDS011;6551;51.056;9.466;2023-03-23T17:05:43;2.77;;;0.93;;
12972;SDS011;6551;51.056;9.466;2023-03-23T17:08:09;2.10;;;0.90;;
12972;SDS011;6551;51.056;9.466;2023-03-23T17:10:36;1.33;;;0.73;;
12972;SDS011;6551;51.056;9.466;2023-03-23T17:13:03;1.87;;;0.80;;
12972;SDS011;6551;51.056;9.466;2023-03-23T17:15:29;1.80;;;0.90;;
12972;SDS011;6551;51.056;9.466;2023-03-23T17:17:55;1.80;;;0.80;;
12972;SDS011;6551;51.056;9.466;2023-03-23T17:20:22;0.87;;;0.87;;
12972;SDS011;6551;51.056;9.466;2023-03-23T17:22:48;1.37;;;0.77;;
12972;SDS011;6551;51.056;9.466;2023-03-23T17:25:15;1.80;;;1.00;;
12972;SDS011;6551;51.056;9.466;2023-03-23T17:27:41;2.03;;;0.80;;
12972;SDS011;6551;51.056;9.466;2023-03-23T17:30:08;1.37;;;0.80;;
12972;SDS011;6551;51.056;9.466;2023-03-23T17:32:35;2.37;;;1.03;;
12972;SDS011;6551;51.056;9.466;2023-03-23T17:35:01;2.77;;;1.10;;
12972;SDS011;6551;51.056;9.466;2023-03-23T17:37:29;2.10;;;1.03;;
12972;SDS011;6551;51.056;9.466;2023-03-23T17:39:57;1.23;;;0.90;;
12972;SDS011;6551;51.056;9.466;2023-03-23T17:42:24;1.43;;;1.00;;
12972;SDS011;6551;51.056;9.466;2023-03-23T17:44:52;2.20;;;0.80;;
12972;SDS011;6551;51.056;9.466;2023-03-23T17:47:18;2.03;;;0.80;;
12972;SDS011;6551;51.056;9.466;2023-03-23T17:49:43;5.17;;;1.30;;
12972;SDS011;6551;51.056;9.466;2023-03-23T17:52:10;1.93;;;0.87;;
12972;SDS011;6551;51.056;9.466;2023-03-23T17:54:36;3.37;;;1.00;;
12972;SDS011;6551;51.056;9.466;2023-03-23T17:57:01;1.93;;;1.00;;
12972;SDS011;6551;51.056;9.466;2023-03-23T17:59:30;2.30;;;1.00;;
12972;SDS011;6551;51.056;9.466;2023-03-23T18:01:57;3.43;;;1.10;;
12972;SDS011;6551;51.056;9.466;2023-03-23T18:04:22;2.97;;;0.93;;